sensor_id;sensor_type;location;lat;lon;timestamp;pressure;altitude;pressure_sealevel;temperature;humidity
5284;BME280;15377;48.540;9.268;2022-09-27T00:00:31;95699.22;;;9.71;100.00
5284;BME280;15377;48.540;9.268;2022-09-27T00:02:56;95681.31;;;9.59;100.00
5284;BME280;15377;48.540;9.268;2022-09-27T00:05:22;95689.75;;;9.72;100.00
5284;BME280;15377;48.540;9.268;2022-09-27T00:07:47;95687.22;;;9.74;100.00
5284;BME280;15377;48.540;9.268;2022-09-27T00:10:13;95690.47;;;9.73;100.00
5284;BME280;15377;48.540;9.268;2022-09-27T00:12:39;95690.75;;;9.69;100.00
5284;BME280;15377;48.540;9.268;2022-09-27T00:15:06;95686.72;;;9.70;100.00
5284;BME280;15377;48.540;9.268;2022-09-27T00:17:32;95663.13;;;9.51;100.00
5284;BME280;15377;48.540;9.268;2022-09-27T00:19:58;95697.19;;;9.77;100.00
5284;BME280;15377;48.540;9.268;2022-09-27T00:22:25;95681.72;;;9.74;100.00
5284;BME280;15377;48.540;9.268;2022-09-27T00:24:50;95684.72;;;9.76;100.00
5284;BME280;15377;48.540;9.268;2022-09-27T00:27:16;95682.19;;;9.78;100.00
5284;BME280;15377;48.540;9.268;2022-09-27T00:29:43;95673.72;;;9.76;100.00
5284;BME280;15377;48.540;9.268;2022-09-27T00:32:09;95683.94;;;9.81;100.00
5284;BME280;15377;48.540;9.268;2022-09-27T00:34:34;95671.97;;;9.79;100.00
5284;BME280;15377;48.540;9.268;2022-09-27T00:36:59;95673.22;;;9.78;100.00
5284;BME280;15377;48.540;9.268;2022-09-27T00:39:25;95659.75;;;9.74;100.00
5284;BME280;15377;48.540;9.268;2022-09-27T00:41:50;95657.31;;;9.65;100.00
5284;BME280;15377;48.540;9.268;2022-09-27T00:47:16;95657.06;;;9.69;100.00
5284;BME280;15377;48.540;9.268;2022-09-27T00:49:49;95642.88;;;9.59;100.00
5284;BME280;15377;48.540;9.268;2022-09-27T00:52:26;95655.25;;;9.71;100.00
5284;BME280;15377;48.540;9.268;2022-09-27T00:55:00;95654.28;;;9.74;100.00
5284;BME280;15377;48.540;9.268;2022-09-27T00:57:27;95649.78;;;9.71;100.00
5284;BME280;15377;48.540;9.268;2022-09-27T01:00:06;95642.06;;;9.70;100.00
5284;BME280;15377;48.540;9.268;2022-09-27T01:02:33;95636.84;;;9.66;100.00
5284;BME280;15377;48.540;9.268;2022-09-27T01:05:00;95647.75;;;9.77;100.00
5284;BME280;15377;48.540;9.268;2022-09-27T01:07:27;95643.50;;;9.76;100.00
5284;BME280;15377;48.540;9.268;2022-09-27T01:09:52;95641.25;;;9.80;100.00
5284;BME280;15377;48.540;9.268;2022-09-27T01:15:21;95637.25;;;9.81;100.00
5284;BME280;15377;48.540;9.268;2022-09-27T01:17:55;95645.72;;;9.83;100.00
5284;BME280;15377;48.540;9.268;2022-09-27T01:24:00;95643.69;;;9.89;100.00
5284;BME280;15377;48.540;9.268;2022-09-27T01:29:59;95645.94;;;9.85;100.00
5284;BME280;15377;48.540;9.268;2022-09-27T01:32:31;95643.69;;;9.89;100.00
5284;BME280;15377;48.540;9.268;2022-09-27T01:35:02;95641.19;;;9.91;100.00
5284;BME280;15377;48.540;9.268;2022-09-27T01:38:01;95652.16;;;9.91;100.00
5284;BME280;15377;48.540;9.268;2022-09-27T01:43:16;95653.88;;;9.94;100.00
5284;BME280;15377;48.540;9.268;2022-09-27T01:46:07;95623.81;;;9.72;100.00
5284;BME280;15377;48.540;9.268;2022-09-27T01:48:40;95652.94;;;9.92;100.00
5284;BME280;15377;48.540;9.268;2022-09-27T01:51:10;95641.25;;;9.80;100.00
5284;BME280;15377;48.540;9.268;2022-09-27T01:53:43;95644.91;;;9.94;100.00
5284;BME280;15377;48.540;9.268;2022-09-27T01:56:15;95640.41;;;9.91;100.00
5284;BME280;15377;48.540;9.268;2022-09-27T01:58:52;95618.56;;;9.74;100.00
5284;BME280;15377;48.540;9.268;2022-09-27T02:01:21;95649.19;;;9.89;100.00
5284;BME280;15377;48.540;9.268;2022-09-27T02:03:49;95649.91;;;9.90;100.00
5284;BME280;15377;48.540;9.268;2022-09-27T02:06:23;95641.19;;;9.91;100.00
5284;BME280;15377;48.540;9.268;2022-09-27T02:08:52;95646.66;;;9.91;100.00
5284;BME280;15377;48.540;9.268;2022-09-27T02:11:19;95636.44;;;9.92;100.00
5284;BME280;15377;48.540;9.268;2022-09-27T02:19:26;95645.84;;;10.02;100.00
5284;BME280;15377;48.540;9.268;2022-09-27T02:24:19;95643.16;;;9.96;100.00
5284;BME280;15377;48.540;9.268;2022-09-27T02:26:50;95639.88;;;9.98;100.00
5284;BME280;15377;48.540;9.268;2022-09-27T02:29:22;95641.66;;;9.95;100.00
5284;BME280;15377;48.540;9.268;2022-09-27T02:31:50;95662.56;;;10.09;100.00
5284;BME280;15377;48.540;9.268;2022-09-27T02:34:22;95660.06;;;10.11;100.00
5284;BME280;15377;48.540;9.268;2022-09-27T02:36:50;95662.09;;;10.05;100.00
5284;BME280;15377;48.540;9.268;2022-09-27T02:39:17;95664.63;;;10.03;100.00
5284;BME280;15377;48.540;9.268;2022-09-27T02:41:43;95671.59;;;10.04;100.00
5284;BME280;15377;48.540;9.268;2022-09-27T02:44:11;95652.16;;;9.91;100.00
5284;BME280;15377;48.540;9.268;2022-09-27T03:00:37;95680.63;;;9.94;100.00
5284;BME280;15377;48.540;9.268;2022-09-27T03:03:17;95676.97;;;9.80;100.00
5284;BME280;15377;48.540;9.268;2022-09-27T03:06:03;95703.59;;;9.96;100.00
5284;BME280;15377;48.540;9.268;2022-09-27T03:08:29;95669.50;;;9.75;100.00
5284;BME280;15377;48.540;9.268;2022-09-27T03:10:54;95701.63;;;9.91;100.00
5284;BME280;15377;48.540;9.268;2022-09-27T03:13:20;95712.13;;;9.87;100.00
5284;BME280;15377;48.540;9.268;2022-09-27T03:15:45;95712.88;;;9.88;100.00
5284;BME280;15377;48.540;9.268;2022-09-27T03:18:11;95724.63;;;9.88;100.00
5284;BME280;15377;48.540;9.268;2022-09-27T03:20:36;95726.13;;;9.89;100.00
5284;BME280;15377;48.540;9.268;2022-09-27T03:23:01;95727.09;;;9.86;100.00
5284;BME280;15377;48.540;9.268;2022-09-27T03:25:27;95732.09;;;9.88;100.00
5284;BME280;15377;48.540;9.268;2022-09-27T03:27:52;95735.63;;;9.88;100.00
5284;BME280;15377;48.540;9.268;2022-09-27T03:30:18;95738.84;;;9.87;100.00
5284;BME280;15377;48.540;9.268;2022-09-27T03:32:44;95743.13;;;9.82;100.00
5284;BME280;15377;48.540;9.268;2022-09-27T03:35:10;95757.09;;;9.84;100.00
5284;BME280;15377;48.540;9.268;2022-09-27T03:37:36;95758.13;;;9.81;100.00
5284;BME280;15377;48.540;9.268;2022-09-27T03:40:02;95749.38;;;9.77;100.00
5284;BME280;15377;48.540;9.268;2022-09-27T03:42:27;95754.38;;;9.79;100.00
5284;BME280;15377;48.540;9.268;2022-09-27T03:44:52;95758.16;;;9.76;100.00
5284;BME280;15377;48.540;9.268;2022-09-27T03:47:18;95755.41;;;9.70;100.00
5284;BME280;15377;48.540;9.268;2022-09-27T03:49:43;95759.16;;;9.67;100.00
5284;BME280;15377;48.540;9.268;2022-09-27T03:52:09;95740.00;;;9.51;100.00
5284;BME280;15377;48.540;9.268;2022-09-27T03:54:34;95760.44;;;9.61;100.00
5284;BME280;15377;48.540;9.268;2022-09-27T03:56:59;95759.94;;;9.57;100.00
5284;BME280;15377;48.540;9.268;2022-09-27T03:59:25;95763.19;;;9.55;100.00
5284;BME280;15377;48.540;9.268;2022-09-27T04:01:50;95759.72;;;9.49;100.00
5284;BME280;15377;48.540;9.268;2022-09-27T04:04:16;95761.94;;;9.51;100.00
5284;BME280;15377;48.540;9.268;2022-09-27T04:06:41;95764.22;;;9.47;100.00
5284;BME280;15377;48.540;9.268;2022-09-27T04:09:06;95743.78;;;9.31;100.00
5284;BME280;15377;48.540;9.268;2022-09-27T04:11:32;95747.03;;;9.35;100.00
5284;BME280;15377;48.540;9.268;2022-09-27T04:13:57;95781.44;;;9.53;100.00
5284;BME280;15377;48.540;9.268;2022-09-27T04:16:23;95767.69;;;9.47;100.00
5284;BME280;15377;48.540;9.268;2022-09-27T04:18:49;95754.50;;;9.35;100.00
5284;BME280;15377;48.540;9.268;2022-09-27T04:21:15;95769.75;;;9.41;100.00
5284;BME280;15377;48.540;9.268;2022-09-27T04:23:40;95759.25;;;9.34;100.00
5284;BME280;15377;48.540;9.268;2022-09-27T04:26:06;95741.06;;;9.26;100.00
5284;BME280;15377;48.540;9.268;2022-09-27T04:28:31;95763.00;;;9.42;100.00
5284;BME280;15377;48.540;9.268;2022-09-27T04:30:57;95775.22;;;9.41;100.00
5284;BME280;15377;48.540;9.268;2022-09-27T04:33:23;95733.34;;;9.13;100.00
5284;BME280;15377;48.540;9.268;2022-09-27T04:35:49;95766.25;;;9.35;100.00
5284;BME280;15377;48.540;9.268;2022-09-27T04:38:33;95759.78;;;9.27;100.00
5284;BME280;15377;48.540;9.268;2022-09-27T04:40:59;95777.69;;;9.39;100.00
5284;BME280;15377;48.540;9.268;2022-09-27T04:43:26;95760.25;;;9.31;100.00
5284;BME280;15377;48.540;9.268;2022-09-27T04:45:52;95775.69;;;9.45;100.00
5284;BME280;15377;48.540;9.268;2022-09-27T04:48:17;95758.28;;;9.26;100.00
5284;BME280;15377;48.540;9.268;2022-09-27T04:50:43;95778.47;;;9.40;100.00
5284;BME280;15377;48.540;9.268;2022-09-27T04:53:12;95780.97;;;9.38;100.00
5284;BME280;15377;48.540;9.268;2022-09-27T04:55:38;95788.94;;;9.41;100.00
5284;BME280;15377;48.540;9.268;2022-09-27T04:58:03;95795.19;;;9.36;100.00
5284;BME280;15377;48.540;9.268;2022-09-27T05:00:29;95790.72;;;9.33;100.00
5284;BME280;15377;48.540;9.268;2022-09-27T05:02:56;95768.28;;;9.18;100.00
5284;BME280;15377;48.540;9.268;2022-09-27T05:05:21;95803.19;;;9.29;100.00
5284;BME280;15377;48.540;9.268;2022-09-27T05:07:46;95801.69;;;9.22;100.00
5284;BME280;15377;48.540;9.268;2022-09-27T05:10:12;95818.66;;;9.15;100.00
5284;BME280;15377;48.540;9.268;2022-09-27T05:12:37;95815.19;;;9.09;100.00
5284;BME280;15377;48.540;9.268;2022-09-27T05:15:03;95827.91;;;9.12;100.00
5284;BME280;15377;48.540;9.268;2022-09-27T05:17:29;95824.16;;;9.04;100.00
5284;BME280;15377;48.540;9.268;2022-09-27T05:19:54;95835.13;;;9.04;100.00
5284;BME280;15377;48.540;9.268;2022-09-27T05:22:19;95830.13;;;9.03;100.00
5284;BME280;15377;48.540;9.268;2022-09-27T05:24:45;95835.13;;;8.99;100.00
5284;BME280;15377;48.540;9.268;2022-09-27T05:27:15;95827.41;;;9.03;100.00
5284;BME280;15377;48.540;9.268;2022-09-27T05:29:45;95834.13;;;9.07;100.00
5284;BME280;15377;48.540;9.268;2022-09-27T05:32:11;95834.91;;;9.02;100.00
5284;BME280;15377;48.540;9.268;2022-09-27T05:34:36;95840.38;;;9.02;100.00
5284;BME280;15377;48.540;9.268;2022-09-27T05:37:01;95834.13;;;9.02;100.00
5284;BME280;15377;48.540;9.268;2022-09-27T05:39:27;95839.13;;;9.03;100.00
5284;BME280;15377;48.540;9.268;2022-09-27T05:41:53;95830.16;;;8.97;100.00
5284;BME280;15377;48.540;9.268;2022-09-27T05:44:20;95853.59;;;9.09;100.00
5284;BME280;15377;48.540;9.268;2022-09-27T05:46:46;95856.59;;;9.11;100.00
5284;BME280;15377;48.540;9.268;2022-09-27T05:49:11;95861.59;;;9.13;100.00
5284;BME280;15377;48.540;9.268;2022-09-27T05:51:37;95855.34;;;9.12;100.00
5284;BME280;15377;48.540;9.268;2022-09-27T05:54:02;95858.84;;;9.13;100.00
5284;BME280;15377;48.540;9.268;2022-09-27T05:56:28;95869.53;;;9.16;100.00
5284;BME280;15377;48.540;9.268;2022-09-27T05:58:54;95865.81;;;9.14;100.00
5284;BME280;15377;48.540;9.268;2022-09-27T06:01:19;95882.53;;;9.16;100.00
5284;BME280;15377;48.540;9.268;2022-09-27T06:03:45;95888.03;;;9.10;100.00
5284;BME280;15377;48.540;9.268;2022-09-27T06:06:11;95889.53;;;9.11;100.00
5284;BME280;15377;48.540;9.268;2022-09-27T06:08:39;95884.03;;;9.11;100.00
5284;BME280;15377;48.540;9.268;2022-09-27T06:11:07;95860.81;;;8.96;100.00
5284;BME280;15377;48.540;9.268;2022-09-27T06:13:33;95896.50;;;9.12;100.00
5284;BME280;15377;48.540;9.268;2022-09-27T06:16:00;95892.00;;;8.98;100.00
5284;BME280;15377;48.540;9.268;2022-09-27T06:18:26;95902.00;;;9.01;100.00
5284;BME280;15377;48.540;9.268;2022-09-27T06:20:52;95900.47;;;9.00;100.00
5284;BME280;15377;48.540;9.268;2022-09-27T06:23:21;95910.44;;;8.92;100.00
5284;BME280;15377;48.540;9.268;2022-09-27T06:25:47;95896.94;;;8.72;100.00
5284;BME280;15377;48.540;9.268;2022-09-27T06:28:14;95911.16;;;8.76;100.00
5284;BME280;15377;48.540;9.268;2022-09-27T06:30:44;95912.91;;;8.79;100.00
5284;BME280;15377;48.540;9.268;2022-09-27T06:33:13;95917.41;;;8.82;100.00
5284;BME280;15377;48.540;9.268;2022-09-27T06:35:40;95918.66;;;8.92;100.00
5284;BME280;15377;48.540;9.268;2022-09-27T06:38:08;95917.44;;;8.93;100.00
5284;BME280;15377;48.540;9.268;2022-09-27T06:40:35;95924.91;;;8.98;100.00
5284;BME280;15377;48.540;9.268;2022-09-27T06:43:04;95930.41;;;8.98;100.00
5284;BME280;15377;48.540;9.268;2022-09-27T06:45:32;95927.91;;;9.00;100.00
5284;BME280;15377;48.540;9.268;2022-09-27T06:47:59;95929.19;;;9.05;100.00
5284;BME280;15377;48.540;9.268;2022-09-27T06:50:29;95938.91;;;9.11;100.00
5284;BME280;15377;48.540;9.268;2022-09-27T06:52:57;95938.41;;;9.18;100.00
5284;BME280;15377;48.540;9.268;2022-09-27T06:55:22;95935.91;;;9.31;100.00
5284;BME280;15377;48.540;9.268;2022-09-27T06:57:48;95941.94;;;9.35;100.00
5284;BME280;15377;48.540;9.268;2022-09-27T07:00:32;95930.19;;;9.29;100.00
5284;BME280;15377;48.540;9.268;2022-09-27T07:02:57;95940.44;;;9.29;100.00
5284;BME280;15377;48.540;9.268;2022-09-27T07:05:27;95959.66;;;9.34;100.00
5284;BME280;15377;48.540;9.268;2022-09-27T07:07:57;95973.38;;;9.34;100.00
5284;BME280;15377;48.540;9.268;2022-09-27T07:10:24;95970.63;;;9.34;100.00
5284;BME280;15377;48.540;9.268;2022-09-27T07:12:50;95973.38;;;9.34;100.00
5284;BME280;15377;48.540;9.268;2022-09-27T07:15:17;95977.38;;;9.44;100.00
5284;BME280;15377;48.540;9.268;2022-09-27T07:17:43;95977.88;;;9.48;100.00
5284;BME280;15377;48.540;9.268;2022-09-27T07:20:09;95981.84;;;9.47;100.00
5284;BME280;15377;48.540;9.268;2022-09-27T07:22:41;95978.63;;;9.49;100.00
5284;BME280;15377;48.540;9.268;2022-09-27T07:25:10;95975.13;;;9.54;100.00
5284;BME280;15377;48.540;9.268;2022-09-27T07:27:35;95979.88;;;9.64;100.00
5284;BME280;15377;48.540;9.268;2022-09-27T07:30:01;95983.34;;;9.70;100.00
5284;BME280;15377;48.540;9.268;2022-09-27T07:32:27;95992.13;;;9.74;100.00
5284;BME280;15377;48.540;9.268;2022-09-27T07:34:52;95991.09;;;9.83;100.00
5284;BME280;15377;48.540;9.268;2022-09-27T07:37:17;95993.63;;;10.03;100.00
5284;BME280;15377;48.540;9.268;2022-09-27T07:39:43;95988.59;;;9.90;100.00
5284;BME280;15377;48.540;9.268;2022-09-27T07:42:09;96006.88;;;10.04;100.00
5284;BME280;15377;48.540;9.268;2022-09-27T07:44:34;96004.84;;;10.10;100.00
5284;BME280;15377;48.540;9.268;2022-09-27T07:47:00;96002.09;;;10.10;100.00
5284;BME280;15377;48.540;9.268;2022-09-27T07:49:25;96019.84;;;10.20;100.00
5284;BME280;15377;48.540;9.268;2022-09-27T07:51:51;96020.34;;;10.13;100.00
5284;BME280;15377;48.540;9.268;2022-09-27T07:54:16;96027.56;;;10.22;100.00
5284;BME280;15377;48.540;9.268;2022-09-27T07:56:44;96026.03;;;10.43;100.00
5284;BME280;15377;48.540;9.268;2022-09-27T07:59:09;96035.22;;;10.67;100.00
5284;BME280;15377;48.540;9.268;2022-09-27T08:01:34;96047.22;;;10.64;100.00
5284;BME280;15377;48.540;9.268;2022-09-27T08:04:00;96054.47;;;10.62;100.00
5284;BME280;15377;48.540;9.268;2022-09-27T08:06:25;96037.75;;;10.60;100.00
5284;BME280;15377;48.540;9.268;2022-09-27T08:08:51;96051.63;;;10.89;100.00
5284;BME280;15377;48.540;9.268;2022-09-27T08:11:17;96050.81;;;11.10;100.00
5284;BME280;15377;48.540;9.268;2022-09-27T08:13:44;96060.97;;;11.32;100.00
5284;BME280;15377;48.540;9.268;2022-09-27T08:16:10;96070.38;;;11.53;100.00
5284;BME280;15377;48.540;9.268;2022-09-27T08:18:36;96079.66;;;11.50;100.00
5284;BME280;15377;48.540;9.268;2022-09-27T08:21:01;96071.22;;;11.37;100.00
5284;BME280;15377;48.540;9.268;2022-09-27T08:23:27;96069.00;;;11.30;100.00
5284;BME280;15377;48.540;9.268;2022-09-27T08:25:54;96081.41;;;11.53;100.00
5284;BME280;15377;48.540;9.268;2022-09-27T08:28:19;96089.00;;;11.82;100.00
5284;BME280;15377;48.540;9.268;2022-09-27T08:30:47;96077.13;;;11.63;100.00
5284;BME280;15377;48.540;9.268;2022-09-27T08:33:13;96099.38;;;11.65;100.00
5284;BME280;15377;48.540;9.268;2022-09-27T08:35:38;96062.22;;;11.36;100.00
5284;BME280;15377;48.540;9.268;2022-09-27T08:38:04;96076.00;;;11.31;100.00
5284;BME280;15377;48.540;9.268;2022-09-27T08:40:54;96110.31;;;11.30;100.00
5284;BME280;15377;48.540;9.268;2022-09-27T08:43:48;96101.78;;;11.33;100.00
5284;BME280;15377;48.540;9.268;2022-09-27T08:49:01;96102.25;;;11.89;100.00
5284;BME280;15377;48.540;9.268;2022-09-27T08:51:30;96125.94;;;12.38;100.00
5284;BME280;15377;48.540;9.268;2022-09-27T08:54:22;96102.84;;;12.41;100.00
5284;BME280;15377;48.540;9.268;2022-09-27T08:56:47;96119.13;;;12.09;100.00
5284;BME280;15377;48.540;9.268;2022-09-27T08:59:18;96114.56;;;11.82;100.00
5284;BME280;15377;48.540;9.268;2022-09-27T09:01:47;96111.78;;;11.36;100.00
5284;BME280;15377;48.540;9.268;2022-09-27T09:04:22;96130.22;;;10.90;100.00
5284;BME280;15377;48.540;9.268;2022-09-27T09:09:39;96118.66;;;9.54;100.00
5284;BME280;15377;48.540;9.268;2022-09-27T09:15:27;96091.88;;;8.69;100.00
5284;BME280;15377;48.540;9.268;2022-09-27T09:18:10;96104.38;;;8.75;100.00
5284;BME280;15377;48.540;9.268;2022-09-27T09:28:58;96061.06;;;8.90;100.00
5284;BME280;15377;48.540;9.268;2022-09-27T09:33:56;96090.38;;;9.21;100.00
5284;BME280;15377;48.540;9.268;2022-09-27T09:36:29;96083.59;;;9.16;100.00
5284;BME280;15377;48.540;9.268;2022-09-27T09:42:22;96088.53;;;10.26;100.00
5284;BME280;15377;48.540;9.268;2022-09-27T09:50:21;96106.91;;;11.02;100.00
5284;BME280;15377;48.540;9.268;2022-09-27T09:52:52;96108.56;;;11.78;100.00
5284;BME280;15377;48.540;9.268;2022-09-27T09:55:22;96121.84;;;13.46;100.00
5284;BME280;15377;48.540;9.268;2022-09-27T09:58:26;96127.19;;;15.19;100.00
5284;BME280;15377;48.540;9.268;2022-09-27T10:00:56;96142.53;;;15.59;100.00
5284;BME280;15377;48.540;9.268;2022-09-27T10:03:24;96141.03;;;15.71;100.00
5284;BME280;15377;48.540;9.268;2022-09-27T10:05:50;96145.41;;;15.28;100.00
5284;BME280;15377;48.540;9.268;2022-09-27T10:08:20;96141.84;;;14.88;100.00
5284;BME280;15377;48.540;9.268;2022-09-27T10:10:47;96134.81;;;14.87;100.00
5284;BME280;15377;48.540;9.268;2022-09-27T10:13:18;96127.78;;;14.86;100.00
5284;BME280;15377;48.540;9.268;2022-09-27T10:15:52;96104.75;;;15.82;100.00
5284;BME280;15377;48.540;9.268;2022-09-27T10:18:20;96112.84;;;16.47;100.00
5284;BME280;15377;48.540;9.268;2022-09-27T10:20:53;96111.53;;;17.17;100.00
5284;BME280;15377;48.540;9.268;2022-09-27T10:23:22;96111.84;;;17.62;100.00
5284;BME280;15377;48.540;9.268;2022-09-27T10:25:50;96116.94;;;17.86;100.00
5284;BME280;15377;48.540;9.268;2022-09-27T10:28:35;96112.13;;;18.37;100.00
5284;BME280;15377;48.540;9.268;2022-09-27T10:31:11;96115.94;;;18.19;100.00
5284;BME280;15377;48.540;9.268;2022-09-27T10:33:50;96107.88;;;17.93;100.00
5284;BME280;15377;48.540;9.268;2022-09-27T10:36:30;96107.75;;;17.00;100.00
5284;BME280;15377;48.540;9.268;2022-09-27T10:38:57;96103.81;;;16.00;100.00
5284;BME280;15377;48.540;9.268;2022-09-27T10:41:31;96113.25;;;15.51;100.00
5284;BME280;15377;48.540;9.268;2022-09-27T10:43:57;96111.19;;;15.12;100.00
5284;BME280;15377;48.540;9.268;2022-09-27T10:48:48;96094.63;;;14.24;100.00
5284;BME280;15377;48.540;9.268;2022-09-27T10:51:31;96100.00;;;14.16;100.00
5284;BME280;15377;48.540;9.268;2022-09-27T10:53:57;96084.63;;;14.21;100.00
5284;BME280;15377;48.540;9.268;2022-09-27T10:56:31;96080.66;;;14.48;100.00
5284;BME280;15377;48.540;9.268;2022-09-27T10:58:59;96066.78;;;14.35;100.00
5284;BME280;15377;48.540;9.268;2022-09-27T11:01:42;96082.06;;;14.67;100.00
5284;BME280;15377;48.540;9.268;2022-09-27T11:04:19;96073.00;;;14.54;100.00
5284;BME280;15377;48.540;9.268;2022-09-27T11:06:45;96077.59;;;14.64;100.00
5284;BME280;15377;48.540;9.268;2022-09-27T11:09:22;96082.59;;;14.53;100.00
5284;BME280;15377;48.540;9.268;2022-09-27T11:12:10;96073.59;;;13.84;100.00
5284;BME280;15377;48.540;9.268;2022-09-27T11:14:36;96065.56;;;13.99;100.00
5284;BME280;15377;48.540;9.268;2022-09-27T11:17:17;96056.16;;;14.39;100.00
5284;BME280;15377;48.540;9.268;2022-09-27T11:26:02;96073.84;;;14.49;100.00
5284;BME280;15377;48.540;9.268;2022-09-27T11:28:50;96073.97;;;14.56;100.00
5284;BME280;15377;48.540;9.268;2022-09-27T11:36:49;96065.94;;;14.40;100.00
5284;BME280;15377;48.540;9.268;2022-09-27T11:45:20;96052.78;;;13.96;100.00
5284;BME280;15377;48.540;9.268;2022-09-27T11:56:23;96028.19;;;15.20;100.00
5284;BME280;15377;48.540;9.268;2022-09-27T12:04:40;96001.84;;;15.39;100.00
5284;BME280;15377;48.540;9.268;2022-09-27T12:09:44;96003.56;;;14.90;100.00
5284;BME280;15377;48.540;9.268;2022-09-27T12:12:23;96021.69;;;14.53;100.00
5284;BME280;15377;48.540;9.268;2022-09-27T12:15:01;96018.16;;;14.08;100.00
5284;BME280;15377;48.540;9.268;2022-09-27T12:17:32;96003.19;;;13.85;100.00
5284;BME280;15377;48.540;9.268;2022-09-27T12:20:02;96008.34;;;13.44;100.00
5284;BME280;15377;48.540;9.268;2022-09-27T12:22:49;95991.31;;;13.03;100.00
5284;BME280;15377;48.540;9.268;2022-09-27T12:25:17;95979.84;;;12.75;100.00
5284;BME280;15377;48.540;9.268;2022-09-27T12:30:40;96003.13;;;12.55;100.00
5284;BME280;15377;48.540;9.268;2022-09-27T12:33:17;95995.44;;;11.95;100.00
5284;BME280;15377;48.540;9.268;2022-09-27T12:35:52;96017.00;;;11.21;100.00
5284;BME280;15377;48.540;9.268;2022-09-27T12:38:22;96014.72;;;10.57;100.00
5284;BME280;15377;48.540;9.268;2022-09-27T12:40:52;95984.84;;;10.15;100.00
5284;BME280;15377;48.540;9.268;2022-09-27T12:43:21;95999.34;;;9.99;100.00
5284;BME280;15377;48.540;9.268;2022-09-27T12:48:38;95991.88;;;9.72;100.00
5284;BME280;15377;48.540;9.268;2022-09-27T12:51:09;95980.63;;;9.65;100.00
5284;BME280;15377;48.540;9.268;2022-09-27T12:56:39;95976.13;;;9.73;100.00
5284;BME280;15377;48.540;9.268;2022-09-27T13:07:25;95967.53;;;10.48;100.00
5284;BME280;15377;48.540;9.268;2022-09-27T13:12:38;95970.31;;;10.99;100.00
5284;BME280;15377;48.540;9.268;2022-09-27T13:15:19;95974.44;;;11.22;100.00
5284;BME280;15377;48.540;9.268;2022-09-27T13:17:51;95975.47;;;11.54;100.00
5284;BME280;15377;48.540;9.268;2022-09-27T13:22:52;95971.16;;;11.64;100.00
5284;BME280;15377;48.540;9.268;2022-09-27T13:31:05;95966.09;;;11.68;100.00
5284;BME280;15377;48.540;9.268;2022-09-27T13:36:17;95991.03;;;11.46;100.00
5284;BME280;15377;48.540;9.268;2022-09-27T13:41:54;95967.63;;;11.63;100.00
5284;BME280;15377;48.540;9.268;2022-09-27T13:44:34;95973.03;;;11.80;100.00
5284;BME280;15377;48.540;9.268;2022-09-27T13:52:41;95986.28;;;12.11;100.00
5284;BME280;15377;48.540;9.268;2022-09-27T13:56:22;95992.31;;;12.09;100.00
5284;BME280;15377;48.540;9.268;2022-09-27T14:00:49;95986.03;;;11.85;100.00
5284;BME280;15377;48.540;9.268;2022-09-27T14:03:50;96004.34;;;11.82;100.00
5284;BME280;15377;48.540;9.268;2022-09-27T14:06:19;96012.88;;;11.79;100.00
5284;BME280;15377;48.540;9.268;2022-09-27T14:08:52;96007.59;;;11.81;100.00
5284;BME280;15377;48.540;9.268;2022-09-27T14:11:27;95997.88;;;11.74;100.00
5284;BME280;15377;48.540;9.268;2022-09-27T14:13:54;96023.72;;;11.66;100.00
5284;BME280;15377;48.540;9.268;2022-09-27T14:16:21;96025.91;;;11.38;100.00
5284;BME280;15377;48.540;9.268;2022-09-27T14:18:52;96008.38;;;11.35;100.00
5284;BME280;15377;48.540;9.268;2022-09-27T14:21:31;96012.38;;;11.40;100.00
5284;BME280;15377;48.540;9.268;2022-09-27T14:27:20;96008.06;;;11.44;100.00
5284;BME280;15377;48.540;9.268;2022-09-27T14:29:53;96008.75;;;11.56;100.00
5284;BME280;15377;48.540;9.268;2022-09-27T14:32:23;96008.50;;;11.59;100.00
5284;BME280;15377;48.540;9.268;2022-09-27T14:35:18;96013.19;;;11.70;100.00
5284;BME280;15377;48.540;9.268;2022-09-27T14:38:04;96013.38;;;11.77;100.00
5284;BME280;15377;48.540;9.268;2022-09-27T14:40:36;96008.84;;;11.80;100.00
5284;BME280;15377;48.540;9.268;2022-09-27T14:43:04;96028.31;;;11.93;100.00
5284;BME280;15377;48.540;9.268;2022-09-27T14:45:35;96025.34;;;12.15;100.00
5284;BME280;15377;48.540;9.268;2022-09-27T14:48:03;96024.75;;;11.98;100.00
5284;BME280;15377;48.540;9.268;2022-09-27T14:50:52;96020.03;;;11.93;100.00
5284;BME280;15377;48.540;9.268;2022-09-27T14:53:22;96024.28;;;11.94;100.00
5284;BME280;15377;48.540;9.268;2022-09-27T14:55:49;96030.34;;;11.87;100.00
5284;BME280;15377;48.540;9.268;2022-09-27T14:58:16;96023.94;;;11.73;100.00
5284;BME280;15377;48.540;9.268;2022-09-27T15:00:45;96036.72;;;11.71;100.00
5284;BME280;15377;48.540;9.268;2022-09-27T15:03:15;96037.75;;;11.68;100.00
5284;BME280;15377;48.540;9.268;2022-09-27T15:05:44;96037.56;;;11.60;100.00
5284;BME280;15377;48.540;9.268;2022-09-27T15:08:10;96024.75;;;11.63;100.00
5284;BME280;15377;48.540;9.268;2022-09-27T15:10:37;96040.25;;;11.66;100.00
5284;BME280;15377;48.540;9.268;2022-09-27T15:13:03;96031.28;;;11.60;100.00
5284;BME280;15377;48.540;9.268;2022-09-27T15:15:35;96020.31;;;11.49;100.00
5284;BME280;15377;48.540;9.268;2022-09-27T15:18:22;96045.22;;;11.73;100.00
5284;BME280;15377;48.540;9.268;2022-09-27T15:20:52;96040.53;;;11.57;100.00
5284;BME280;15377;48.540;9.268;2022-09-27T15:23:26;96054.59;;;11.59;100.00
5284;BME280;15377;48.540;9.268;2022-09-27T15:25:59;96052.31;;;11.63;100.00
5284;BME280;15377;48.540;9.268;2022-09-27T15:28:27;96036.06;;;11.59;100.00
5284;BME280;15377;48.540;9.268;2022-09-27T15:30:57;96040.22;;;11.71;100.00
5284;BME280;15377;48.540;9.268;2022-09-27T15:33:26;96046.53;;;11.66;100.00
5284;BME280;15377;48.540;9.268;2022-09-27T15:35:55;96052.31;;;11.63;100.00
5284;BME280;15377;48.540;9.268;2022-09-27T15:38:29;96065.63;;;11.53;100.00
5284;BME280;15377;48.540;9.268;2022-09-27T15:46:34;96067.50;;;11.29;100.00
5284;BME280;15377;48.540;9.268;2022-09-27T15:51:45;96068.31;;;11.18;100.00
5284;BME280;15377;48.540;9.268;2022-09-27T15:54:10;96064.81;;;11.12;100.00